Time;durP1;ratioP1;P1;durP2;ratioP2;P2;SDS_P1;SDS_P2;PMS_P1;PMS_P2;Temp;Humidity;BMP_temperature;BMP_pressure;BME280_temperature;BME280_humidity;BME280_pressure;Samples;Min_cycle;Max_cycle;Signal;HPM_P1;HPM_P2
2019/10/18 00:02:34;;;;;;;1.33;1.23;;;;;;;20.15;58.45;100263.28;;;;-51
2019/10/18 00:05:34;;;;;;;1.69;1.27;;;;;;;20.15;58.45;100257.91;;;;-51
2019/10/18 00:08:34;;;;;;;1.62;1.20;;;;;;;20.15;58.44;100255.46;;;;-51
2019/10/18 00:11:34;;;;;;;1.30;1.20;;;;;;;20.14;58.41;100251.06;;;;-51
2019/10/18 00:14:34;;;;;;;1.30;1.20;;;;;;;20.13;58.44;100249.45;;;;-51
2019/10/18 00:17:34;;;;;;;1.29;1.20;;;;;;;20.14;58.42;100252.01;;;;-52
2019/10/18 00:20:34;;;;;;;1.35;1.25;;;;;;;20.14;58.44;100255.09;;;;-51
2019/10/18 00:23:34;;;;;;;1.35;1.25;;;;;;;20.13;58.43;100256.50;;;;-51
2019/10/18 00:26:34;;;;;;;1.29;1.19;;;;;;;20.13;58.43;100259.68;;;;-52
2019/10/18 00:30:34;;;;;;;1.43;1.20;;;;;;;20.13;58.45;100260.02;;;;-51
2019/10/18 00:33:34;;;;;;;1.23;1.13;;;;;;;20.13;58.46;100257.67;;;;-51
2019/10/18 00:39:34;;;;;;;1.34;1.19;;;;;;;20.12;58.45;100251.77;;;;-51
2019/10/18 00:42:34;;;;;;;1.32;1.22;;;;;;;20.11;58.46;100251.45;;;;-50
2019/10/18 00:45:34;;;;;;;1.23;1.13;;;;;;;20.11;58.46;100252.56;;;;-50
2019/10/18 00:48:34;;;;;;;1.35;1.25;;;;;;;20.11;58.45;100253.23;;;;-51
2019/10/18 00:51:34;;;;;;;1.10;1.10;;;;;;;20.11;58.44;100246.19;;;;-51
2019/10/18 00:54:34;;;;;;;1.32;1.22;;;;;;;20.10;58.48;100241.53;;;;-51
2019/10/18 00:57:34;;;;;;;1.35;1.20;;;;;;;20.10;58.47;100243.14;;;;-50
2019/10/18 01:00:34;;;;;;;1.35;1.25;;;;;;;20.10;58.46;100233.91;;;;-51
2019/10/18 01:03:34;;;;;;;1.41;1.31;;;;;;;20.10;58.48;100230.97;;;;-51
2019/10/18 01:06:34;;;;;;;1.28;1.18;;;;;;;20.09;58.48;100229.92;;;;-51
2019/10/18 01:09:34;;;;;;;1.93;1.22;;;;;;;20.09;58.46;100234.20;;;;-51
2019/10/18 01:12:34;;;;;;;1.30;1.20;;;;;;;20.10;58.47;100231.97;;;;-51
2019/10/18 01:15:34;;;;;;;1.12;1.09;;;;;;;20.08;58.46;100223.84;;;;-51
2019/10/18 01:18:34;;;;;;;1.29;1.22;;;;;;;20.08;58.49;100222.10;;;;-51
2019/10/18 01:21:34;;;;;;;1.28;1.20;;;;;;;20.08;58.48;100218.31;;;;-51
2019/10/18 01:24:34;;;;;;;1.31;1.20;;;;;;;20.07;58.46;100216.53;;;;-52
2019/10/18 01:27:34;;;;;;;1.43;1.33;;;;;;;20.07;58.46;100215.45;;;;-51
2019/10/18 01:30:34;;;;;;;1.32;1.22;;;;;;;20.07;58.48;100214.02;;;;-51
2019/10/18 01:33:34;;;;;;;1.23;1.17;;;;;;;20.08;58.49;100212.11;;;;-51
2019/10/18 01:36:34;;;;;;;1.18;1.14;;;;;;;20.07;58.46;100214.35;;;;-51
2019/10/18 01:39:34;;;;;;;1.30;1.20;;;;;;;20.07;58.47;100210.09;;;;-51
2019/10/18 01:42:34;;;;;;;1.20;1.20;;;;;;;20.06;58.49;100208.45;;;;-50
2019/10/18 01:45:34;;;;;;;1.21;1.14;;;;;;;20.06;58.47;100203.82;;;;-51
2019/10/18 01:48:34;;;;;;;1.29;1.19;;;;;;;20.06;58.49;100211.30;;;;-51
2019/10/18 01:51:34;;;;;;;1.18;1.10;;;;;;;20.06;58.50;100214.41;;;;-51
2019/10/18 01:54:34;;;;;;;1.31;1.21;;;;;;;20.05;58.52;100212.10;;;;-50
2019/10/18 01:57:34;;;;;;;1.11;1.11;;;;;;;20.05;58.48;100212.16;;;;-51
2019/10/18 02:00:34;;;;;;;1.18;1.18;;;;;;;20.05;58.49;100210.66;;;;-51
2019/10/18 02:03:34;;;;;;;1.33;1.23;;;;;;;20.04;58.50;100210.98;;;;-51
2019/10/18 02:06:34;;;;;;;1.47;1.37;;;;;;;20.04;58.52;100210.38;;;;-52
2019/10/18 02:09:34;;;;;;;1.30;1.20;;;;;;;20.04;58.51;100204.45;;;;-51
2019/10/18 02:12:34;;;;;;;1.57;1.22;;;;;;;20.03;58.49;100205.15;;;;-50
2019/10/18 02:15:34;;;;;;;1.30;1.20;;;;;;;20.04;58.52;100213.97;;;;-51
2019/10/18 02:18:34;;;;;;;1.31;1.22;;;;;;;20.04;58.48;100211.95;;;;-66
2019/10/18 02:21:49;;;;;;;1.30;1.20;;;;;;;20.04;58.51;100212.73;;;;-66
2019/10/18 02:24:34;;;;;;;1.37;1.20;;;;;;;20.03;58.48;100202.40;;;;-65
2019/10/18 02:27:34;;;;;;;1.27;1.20;;;;;;;20.03;58.49;100192.07;;;;-65
2019/10/18 02:30:34;;;;;;;1.14;1.14;;;;;;;20.03;58.50;100190.23;;;;-66
2019/10/18 02:33:47;;;;;;;1.21;1.13;;;;;;;20.03;58.50;100198.61;;;;-53
2019/10/18 02:36:35;;;;;;;1.34;1.24;;;;;;;20.03;58.47;100199.05;;;;-53
2019/10/18 02:39:34;;;;;;;1.39;1.29;;;;;;;20.03;58.50;100197.44;;;;-53
2019/10/18 02:42:34;;;;;;;1.20;1.10;;;;;;;20.02;58.51;100195.83;;;;-53
2019/10/18 02:45:34;;;;;;;1.30;1.20;;;;;;;20.03;58.49;100195.66;;;;-53
2019/10/18 02:48:34;;;;;;;1.36;1.26;;;;;;;20.02;58.50;100184.42;;;;-53
2019/10/18 02:51:34;;;;;;;1.34;1.24;;;;;;;20.02;58.50;100178.80;;;;-53
2019/10/18 02:54:34;;;;;;;1.20;1.13;;;;;;;20.02;58.49;100177.28;;;;-53
2019/10/18 02:59:34;;;;;;;1.11;1.11;;;;;;;20.02;58.51;100166.39;;;;-53
2019/10/18 03:02:34;;;;;;;1.38;1.28;;;;;;;20.01;58.48;100155.69;;;;-53
2019/10/18 03:05:34;;;;;;;1.40;1.30;;;;;;;20.01;58.50;100155.80;;;;-53
2019/10/18 03:08:34;;;;;;;1.33;1.23;;;;;;;20.02;58.50;100154.22;;;;-53
2019/10/18 03:11:34;;;;;;;1.22;1.20;;;;;;;20.01;58.49;100159.41;;;;-53
2019/10/18 03:14:34;;;;;;;1.29;1.19;;;;;;;20.01;58.49;100169.77;;;;-53
2019/10/18 03:17:34;;;;;;;1.28;1.18;;;;;;;20.00;58.51;100165.81;;;;-53
2019/10/18 03:20:34;;;;;;;1.22;1.13;;;;;;;20.00;58.51;100163.20;;;;-51
2019/10/18 03:23:34;;;;;;;1.13;1.10;;;;;;;20.00;58.49;100163.47;;;;-51
2019/10/18 03:26:34;;;;;;;1.27;1.17;;;;;;;20.01;58.50;100166.92;;;;-51
2019/10/18 03:29:34;;;;;;;2.41;1.71;;;;;;;19.88;59.92;100167.44;;;;-47
2019/10/18 03:32:34;;;;;;;2.65;2.01;;;;;;;19.76;60.57;100163.22;;;;-47
2019/10/18 03:35:34;;;;;;;3.37;2.05;;;;;;;19.76;60.60;100162.78;;;;-49
2019/10/18 03:38:34;;;;;;;4.75;2.01;;;;;;;19.81;60.09;100164.75;;;;-49
2019/10/18 03:44:34;;;;;;;3.21;1.95;;;;;;;19.87;59.61;100168.06;;;;-49
2019/10/18 03:50:34;;;;;;;2.60;1.73;;;;;;;19.89;59.43;100174.45;;;;-49
2019/10/18 03:53:34;;;;;;;1.61;1.50;;;;;;;19.90;59.39;100174.55;;;;-49
2019/10/18 03:56:34;;;;;;;2.08;1.69;;;;;;;19.91;59.37;100178.71;;;;-49
2019/10/18 03:59:34;;;;;;;1.99;1.60;;;;;;;19.91;59.27;100171.84;;;;-49
2019/10/18 04:02:34;;;;;;;3.07;1.67;;;;;;;19.91;59.21;100179.11;;;;-49
2019/10/18 04:05:34;;;;;;;2.41;1.79;;;;;;;19.92;59.19;100182.10;;;;-49
2019/10/18 04:08:34;;;;;;;2.08;1.62;;;;;;;19.93;59.18;100185.83;;;;-49
2019/10/18 04:11:34;;;;;;;2.61;1.77;;;;;;;19.93;59.12;100187.40;;;;-49
2019/10/18 04:14:34;;;;;;;2.33;1.62;;;;;;;19.93;59.10;100191.19;;;;-49
2019/10/18 04:17:34;;;;;;;2.82;1.67;;;;;;;19.93;59.08;100191.36;;;;-49
2019/10/18 04:20:34;;;;;;;2.07;1.63;;;;;;;19.93;59.05;100194.23;;;;-49
2019/10/18 04:23:34;;;;;;;1.70;1.60;;;;;;;19.93;59.05;100190.92;;;;-49
2019/10/18 04:26:34;;;;;;;1.60;1.50;;;;;;;19.93;59.03;100197.96;;;;-49
2019/10/18 04:29:34;;;;;;;2.16;1.61;;;;;;;19.93;59.01;100194.94;;;;-49
2019/10/18 04:32:34;;;;;;;1.60;1.50;;;;;;;19.92;59.00;100191.89;;;;-49
2019/10/18 04:35:34;;;;;;;2.71;1.59;;;;;;;19.93;58.95;100183.27;;;;-49
2019/10/18 04:38:34;;;;;;;1.69;1.59;;;;;;;19.93;58.94;100183.95;;;;-49
2019/10/18 04:41:34;;;;;;;1.76;1.59;;;;;;;19.94;58.91;100180.63;;;;-52
2019/10/18 04:44:34;;;;;;;2.31;1.61;;;;;;;19.94;58.89;100186.40;;;;-51
2019/10/18 04:47:34;;;;;;;1.60;1.50;;;;;;;19.95;58.84;100186.30;;;;-49
2019/10/18 04:50:34;;;;;;;1.49;1.39;;;;;;;19.97;58.76;100183.27;;;;-52
2019/10/18 04:53:34;;;;;;;1.63;1.53;;;;;;;19.98;58.70;100176.83;;;;-49
2019/10/18 04:56:34;;;;;;;1.57;1.44;;;;;;;20.00;58.60;100176.37;;;;-49
2019/10/18 04:59:34;;;;;;;1.69;1.59;;;;;;;20.02;58.55;100163.38;;;;-52
2019/10/18 05:02:34;;;;;;;1.50;1.40;;;;;;;20.05;58.53;100155.17;;;;-51
2019/10/18 05:05:34;;;;;;;2.06;1.60;;;;;;;20.08;58.54;100152.59;;;;-51
2019/10/18 05:08:34;;;;;;;2.20;1.50;;;;;;;20.10;58.60;100147.08;;;;-49
2019/10/18 05:11:34;;;;;;;2.11;1.55;;;;;;;20.13;58.61;100150.27;;;;-49
2019/10/18 05:14:34;;;;;;;2.37;1.50;;;;;;;20.16;58.64;100146.63;;;;-49
2019/10/18 05:17:34;;;;;;;1.97;1.50;;;;;;;20.19;58.72;100144.12;;;;-52
2019/10/18 05:20:34;;;;;;;2.13;1.55;;;;;;;20.22;58.72;100144.56;;;;-51
2019/10/18 05:23:34;;;;;;;1.50;1.40;;;;;;;20.25;58.77;100152.55;;;;-60
2019/10/18 05:26:34;;;;;;;2.55;1.38;;;;;;;20.27;58.79;100153.30;;;;-52
2019/10/18 05:29:34;;;;;;;1.67;1.50;;;;;;;20.30;58.76;100157.94;;;;-52
2019/10/18 05:32:34;;;;;;;1.40;1.30;;;;;;;20.32;58.84;100157.06;;;;-51
2019/10/18 05:35:34;;;;;;;1.85;1.44;;;;;;;20.34;58.82;100151.94;;;;-51
2019/10/18 05:38:34;;;;;;;1.53;1.29;;;;;;;20.36;58.80;100140.10;;;;-60
2019/10/18 05:41:34;;;;;;;1.60;1.50;;;;;;;20.39;58.77;100135.62;;;;-59
2019/10/18 05:44:34;;;;;;;1.47;1.37;;;;;;;20.40;58.80;100130.52;;;;-52
2019/10/18 05:47:34;;;;;;;1.60;1.50;;;;;;;20.42;58.81;100138.14;;;;-49
2019/10/18 05:50:34;;;;;;;1.40;1.30;;;;;;;20.44;58.78;100133.08;;;;-59
2019/10/18 05:53:34;;;;;;;1.47;1.37;;;;;;;20.44;58.69;100129.42;;;;-60
2019/10/18 05:56:34;;;;;;;1.76;1.49;;;;;;;20.46;58.76;100130.30;;;;-49
2019/10/18 05:59:34;;;;;;;1.53;1.43;;;;;;;20.46;58.69;100128.15;;;;-60
2019/10/18 06:02:34;;;;;;;2.25;1.30;;;;;;;20.48;58.67;100121.38;;;;-51
2019/10/18 06:05:34;;;;;;;1.50;1.40;;;;;;;20.48;58.67;100125.40;;;;-51
2019/10/18 06:08:34;;;;;;;1.49;1.39;;;;;;;20.49;58.62;100126.20;;;;-59
2019/10/18 06:11:34;;;;;;;1.49;1.39;;;;;;;20.50;58.57;100127.82;;;;-59
2019/10/18 06:14:34;;;;;;;1.53;1.31;;;;;;;20.49;58.50;100120.54;;;;-52
2019/10/18 06:17:34;;;;;;;2.89;1.37;;;;;;;20.50;58.45;100118.63;;;;-51
2019/10/18 06:20:34;;;;;;;1.40;1.30;;;;;;;20.50;58.49;100112.98;;;;-49
2019/10/18 06:23:34;;;;;;;1.40;1.30;;;;;;;20.50;58.41;100107.89;;;;-59
2019/10/18 06:26:34;;;;;;;1.40;1.30;;;;;;;20.50;58.40;100112.59;;;;-51
2019/10/18 06:29:34;;;;;;;1.36;1.26;;;;;;;20.51;58.39;100119.13;;;;-49
2019/10/18 06:32:34;;;;;;;1.45;1.35;;;;;;;20.50;58.33;100116.61;;;;-51
2019/10/18 06:35:34;;;;;;;1.30;1.20;;;;;;;20.51;58.28;100122.86;;;;-52
2019/10/18 06:38:34;;;;;;;1.43;1.33;;;;;;;20.51;58.32;100130.64;;;;-52
2019/10/18 06:41:34;;;;;;;1.43;1.30;;;;;;;20.51;58.27;100129.56;;;;-49
2019/10/18 06:44:34;;;;;;;1.33;1.23;;;;;;;20.51;58.20;100135.73;;;;-51
2019/10/18 06:47:34;;;;;;;1.48;1.38;;;;;;;20.51;58.22;100134.23;;;;-49
2019/10/18 06:50:34;;;;;;;1.40;1.30;;;;;;;20.50;58.28;100130.13;;;;-51
2019/10/18 06:53:34;;;;;;;1.44;1.33;;;;;;;20.50;58.20;100134.06;;;;-51
2019/10/18 06:56:34;;;;;;;1.40;1.30;;;;;;;20.51;58.08;100119.80;;;;-51
2019/10/18 06:59:35;;;;;;;1.40;1.30;;;;;;;20.50;58.16;100110.57;;;;-51
2019/10/18 07:02:34;;;;;;;1.32;1.22;;;;;;;20.50;58.05;100117.39;;;;-61
2019/10/18 07:05:34;;;;;;;1.40;1.30;;;;;;;20.50;58.09;100117.39;;;;-49
2019/10/18 07:08:34;;;;;;;1.40;1.30;;;;;;;20.50;58.08;100118.63;;;;-52
2019/10/18 07:11:34;;;;;;;1.69;1.30;;;;;;;20.50;58.01;100117.28;;;;-51
2019/10/18 07:14:34;;;;;;;1.35;1.25;;;;;;;20.50;58.12;100108.29;;;;-51
2019/10/18 07:17:34;;;;;;;1.30;1.20;;;;;;;20.51;58.05;100109.34;;;;-60
2019/10/18 07:20:34;;;;;;;1.41;1.31;;;;;;;20.50;58.08;100100.17;;;;-60
2019/10/18 07:23:34;;;;;;;1.39;1.29;;;;;;;20.51;58.02;100083.40;;;;-49
2019/10/18 07:26:34;;;;;;;1.40;1.30;;;;;;;20.51;58.03;100086.86;;;;-60
2019/10/18 07:29:34;;;;;;;1.40;1.30;;;;;;;20.51;58.00;100076.79;;;;-60
2019/10/18 07:32:34;;;;;;;1.81;1.35;;;;;;;20.51;58.09;100080.92;;;;-59
2019/10/18 07:35:34;;;;;;;1.40;1.30;;;;;;;20.51;58.08;100089.57;;;;-60
2019/10/18 07:38:34;;;;;;;1.40;1.30;;;;;;;20.51;57.90;100080.18;;;;-49
2019/10/18 07:41:34;;;;;;;1.35;1.25;;;;;;;20.51;58.00;100076.22;;;;-60
2019/10/18 07:44:34;;;;;;;1.40;1.30;;;;;;;20.51;57.86;100069.41;;;;-60
2019/10/18 07:47:34;;;;;;;1.50;1.40;;;;;;;20.52;57.90;100066.25;;;;-60
2019/10/18 07:50:34;;;;;;;1.30;1.20;;;;;;;20.51;57.96;100057.53;;;;-59
2019/10/18 07:53:34;;;;;;;1.40;1.30;;;;;;;20.51;57.92;100056.53;;;;-60
2019/10/18 07:56:34;;;;;;;1.30;1.20;;;;;;;20.51;57.90;100064.41;;;;-60
2019/10/18 07:59:34;;;;;;;1.40;1.30;;;;;;;20.51;57.92;100064.24;;;;-59
2019/10/18 08:02:34;;;;;;;2.52;1.20;;;;;;;20.51;57.88;100061.56;;;;-60
2019/10/18 08:05:34;;;;;;;1.27;1.20;;;;;;;20.51;57.80;100059.24;;;;-60
2019/10/18 08:08:34;;;;;;;1.34;1.27;;;;;;;20.50;57.94;100055.55;;;;-60
2019/10/18 08:11:34;;;;;;;1.37;1.26;;;;;;;20.51;57.85;100049.34;;;;-59
2019/10/18 08:14:34;;;;;;;1.25;1.19;;;;;;;20.50;57.90;100057.36;;;;-60
2019/10/18 08:17:34;;;;;;;1.31;1.21;;;;;;;20.50;57.89;100065.52;;;;-60
2019/10/18 08:20:34;;;;;;;4.03;1.36;;;;;;;20.49;58.19;100060.11;;;;-47
2019/10/18 08:23:34;;;;;;;1.53;1.28;;;;;;;20.51;58.29;100060.62;;;;-47
2019/10/18 08:26:34;;;;;;;1.40;1.29;;;;;;;20.53;58.42;100063.61;;;;-51
2019/10/18 08:29:34;;;;;;;4.11;1.36;;;;;;;20.54;58.44;100058.88;;;;-51
2019/10/18 08:32:34;;;;;;;2.66;1.33;;;;;;;20.55;58.31;100064.01;;;;-51
2019/10/18 08:35:34;;;;;;;1.33;1.23;;;;;;;20.54;58.31;100063.30;;;;-51
2019/10/18 08:38:34;;;;;;;2.19;1.31;;;;;;;20.54;58.27;100056.26;;;;-51
2019/10/18 08:41:34;;;;;;;1.55;1.37;;;;;;;20.55;58.22;100061.66;;;;-51
2019/10/18 08:44:34;;;;;;;1.33;1.23;;;;;;;20.53;58.23;100059.78;;;;-51
2019/10/18 08:47:34;;;;;;;1.55;1.29;;;;;;;20.53;58.21;100054.98;;;;-48
2019/10/18 08:50:34;;;;;;;1.55;1.24;;;;;;;20.54;58.16;100054.31;;;;-51
2019/10/18 08:53:34;;;;;;;1.35;1.25;;;;;;;20.53;58.16;100057.13;;;;-48
2019/10/18 08:56:34;;;;;;;1.57;1.33;;;;;;;20.53;58.14;100048.23;;;;-48
2019/10/18 08:59:34;;;;;;;2.09;1.30;;;;;;;20.54;58.29;100036.90;;;;-50
2019/10/18 09:02:34;;;;;;;1.65;1.29;;;;;;;20.55;58.36;100033.31;;;;-61
2019/10/18 09:05:34;;;;;;;2.95;1.40;;;;;;;20.56;58.37;100037.70;;;;-57
2019/10/18 09:08:34;;;;;;;1.51;1.32;;;;;;;20.58;58.37;100041.36;;;;-58
2019/10/18 09:11:34;;;;;;;1.73;1.41;;;;;;;20.59;58.40;100037.03;;;;-56
2019/10/18 09:14:34;;;;;;;2.13;1.37;;;;;;;20.60;58.44;100034.14;;;;-59
2019/10/18 09:17:34;;;;;;;2.73;1.42;;;;;;;20.61;58.55;100032.94;;;;-56
2019/10/18 09:20:34;;;;;;;1.40;1.30;;;;;;;20.61;58.67;100028.14;;;;-60
2019/10/18 09:23:34;;;;;;;1.39;1.29;;;;;;;20.63;58.67;100024.75;;;;-63
2019/10/18 09:26:34;;;;;;;1.94;1.30;;;;;;;20.66;58.55;100024.11;;;;-54
2019/10/18 09:29:34;;;;;;;1.81;1.40;;;;;;;20.67;58.63;100025.22;;;;-55
2019/10/18 09:32:34;;;;;;;1.56;1.34;;;;;;;20.65;58.59;100022.63;;;;-56
2019/10/18 09:35:34;;;;;;;2.47;1.30;;;;;;;20.65;58.53;100013.74;;;;-56
2019/10/18 09:38:34;;;;;;;2.07;1.31;;;;;;;20.65;58.56;100012.56;;;;-54
2019/10/18 09:41:34;;;;;;;1.51;1.36;;;;;;;20.66;58.58;100023.84;;;;-52
2019/10/18 09:44:34;;;;;;;3.05;1.40;;;;;;;20.67;58.47;100021.86;;;;-52
2019/10/18 09:47:34;;;;;;;2.37;1.48;;;;;;;20.68;58.43;100017.36;;;;-51
2019/10/18 09:50:34;;;;;;;4.23;1.40;;;;;;;20.68;58.57;100004.11;;;;-48
2019/10/18 09:53:34;;;;;;;3.69;1.41;;;;;;;20.68;58.63;100007.73;;;;-48
2019/10/18 09:56:34;;;;;;;1.80;1.46;;;;;;;20.70;58.59;100010.81;;;;-49
2019/10/18 09:59:34;;;;;;;4.53;1.51;;;;;;;20.71;58.51;100012.92;;;;-51
2019/10/18 10:02:34;;;;;;;3.79;1.40;;;;;;;20.71;58.52;100013.87;;;;-50
2019/10/18 10:05:34;;;;;;;1.70;1.40;;;;;;;20.71;58.54;100010.34;;;;-51
2019/10/18 10:08:34;;;;;;;2.23;1.30;;;;;;;20.71;58.50;100006.82;;;;-51
2019/10/18 10:11:34;;;;;;;3.07;1.36;;;;;;;20.73;58.56;100001.48;;;;-47
2019/10/18 10:14:34;;;;;;;2.09;1.53;;;;;;;20.73;58.56;99995.03;;;;-47
2019/10/18 10:17:34;;;;;;;2.91;1.37;;;;;;;20.73;58.50;99989.33;;;;-50
2019/10/18 10:20:34;;;;;;;1.91;1.35;;;;;;;20.73;58.53;99991.85;;;;-45
2019/10/18 10:23:34;;;;;;;3.21;1.31;;;;;;;20.74;58.53;99992.78;;;;-50
2019/10/18 10:26:34;;;;;;;3.11;1.52;;;;;;;20.76;58.52;99992.11;;;;-50
2019/10/18 10:29:34;;;;;;;2.07;1.42;;;;;;;20.73;58.53;99992.92;;;;-50
2019/10/18 10:32:34;;;;;;;3.25;1.44;;;;;;;20.73;58.44;100000.74;;;;-49
2019/10/18 10:35:34;;;;;;;4.10;1.45;;;;;;;20.72;58.38;100022.19;;;;-50
2019/10/18 10:38:34;;;;;;;1.57;1.43;;;;;;;20.71;58.44;100033.40;;;;-49
2019/10/18 10:41:34;;;;;;;1.99;1.33;;;;;;;20.70;58.37;100028.09;;;;-49
2019/10/18 10:44:34;;;;;;;1.99;1.27;;;;;;;20.71;58.29;100021.48;;;;-49
2019/10/18 10:47:34;;;;;;;1.95;1.40;;;;;;;20.70;58.27;100027.83;;;;-49
2019/10/18 10:50:34;;;;;;;3.21;1.53;;;;;;;20.69;58.30;100038.03;;;;-49
2019/10/18 10:53:34;;;;;;;1.74;1.34;;;;;;;20.68;58.22;100031.28;;;;-50
2019/10/18 10:56:34;;;;;;;2.27;1.41;;;;;;;20.69;58.21;100062.70;;;;-49
2019/10/18 10:59:34;;;;;;;1.58;1.31;;;;;;;20.67;58.22;100065.08;;;;-50
2019/10/18 11:02:34;;;;;;;2.73;1.40;;;;;;;20.68;58.18;100063.50;;;;-49
2019/10/18 11:05:34;;;;;;;2.45;1.47;;;;;;;20.67;58.17;100050.22;;;;-49
2019/10/18 11:08:34;;;;;;;2.13;1.37;;;;;;;20.67;58.16;100047.97;;;;-49
2019/10/18 11:11:34;;;;;;;2.98;1.40;;;;;;;20.67;58.11;100052.16;;;;-50
2019/10/18 11:14:34;;;;;;;2.19;1.47;;;;;;;20.67;58.13;100048.13;;;;-49
2019/10/18 11:17:34;;;;;;;2.35;1.39;;;;;;;20.66;58.11;100040.79;;;;-49
2019/10/18 11:20:34;;;;;;;2.05;1.40;;;;;;;20.66;58.08;100046.42;;;;-49
2019/10/18 11:23:34;;;;;;;2.69;1.44;;;;;;;20.65;58.12;100024.64;;;;-50
2019/10/18 11:26:34;;;;;;;1.40;1.30;;;;;;;20.63;58.09;100011.77;;;;-52
2019/10/18 11:29:34;;;;;;;2.07;1.40;;;;;;;20.63;58.07;100017.97;;;;-52
2019/10/18 11:32:34;;;;;;;4.25;1.60;;;;;;;20.66;58.17;100030.31;;;;-52
2019/10/18 11:35:34;;;;;;;2.49;1.35;;;;;;;20.67;58.13;100039.31;;;;-51
2019/10/18 11:38:34;;;;;;;3.01;1.46;;;;;;;20.67;58.15;100038.80;;;;-51
2019/10/18 11:41:34;;;;;;;2.44;1.40;;;;;;;20.68;58.17;100030.45;;;;-51
2019/10/18 11:44:34;;;;;;;5.67;1.52;;;;;;;20.70;58.18;100035.14;;;;-48
2019/10/18 11:47:34;;;;;;;2.05;1.40;;;;;;;20.71;58.19;100036.52;;;;-48
2019/10/18 11:50:34;;;;;;;2.27;1.30;;;;;;;20.71;58.17;100035.52;;;;-50
2019/10/18 11:53:34;;;;;;;1.68;1.45;;;;;;;20.71;58.21;100032.33;;;;-51
2019/10/18 11:56:34;;;;;;;2.45;1.60;;;;;;;20.72;58.23;100034.77;;;;-50
2019/10/18 11:59:34;;;;;;;3.70;1.45;;;;;;;20.73;58.18;100029.61;;;;-52
2019/10/18 12:02:34;;;;;;;3.62;1.41;;;;;;;20.72;58.33;100023.30;;;;-49
2019/10/18 12:05:34;;;;;;;4.08;1.42;;;;;;;20.72;58.42;100016.22;;;;-52
2019/10/18 12:08:34;;;;;;;4.73;1.43;;;;;;;20.73;58.35;100020.37;;;;-51
2019/10/18 12:11:34;;;;;;;2.03;1.65;;;;;;;20.73;58.29;100019.87;;;;-53
2019/10/18 12:14:36;;;;;;;6.86;1.77;;;;;;;20.72;58.51;100028.40;;;;-50
2019/10/18 12:17:34;;;;;;;2.73;1.45;;;;;;;20.73;58.44;100029.17;;;;-50
2019/10/18 12:20:34;;;;;;;4.03;1.63;;;;;;;20.74;58.37;100026.78;;;;-53
2019/10/18 12:23:34;;;;;;;3.79;1.60;;;;;;;20.73;58.39;100023.50;;;;-51
2019/10/18 12:26:34;;;;;;;3.23;1.65;;;;;;;20.74;58.46;100023.09;;;;-52
2019/10/18 12:29:34;;;;;;;3.55;1.73;;;;;;;20.74;58.40;100009.27;;;;-48
2019/10/18 12:32:34;;;;;;;4.87;1.82;;;;;;;20.75;58.41;100004.39;;;;-50
2019/10/18 12:35:34;;;;;;;4.67;1.90;;;;;;;20.76;58.40;100005.37;;;;-50
2019/10/18 12:38:34;;;;;;;3.17;1.74;;;;;;;20.76;58.36;99999.16;;;;-50
2019/10/18 12:41:34;;;;;;;3.56;1.95;;;;;;;20.75;58.38;99991.07;;;;-52
2019/10/18 12:44:34;;;;;;;4.20;2.00;;;;;;;20.75;58.39;99991.17;;;;-51
2019/10/18 12:47:34;;;;;;;3.89;1.80;;;;;;;20.75;58.34;99988.16;;;;-50
2019/10/18 12:50:34;;;;;;;3.48;1.83;;;;;;;20.75;58.39;99990.67;;;;-53
2019/10/18 12:53:34;;;;;;;3.66;1.96;;;;;;;20.76;58.39;99989.66;;;;-51
2019/10/18 12:56:34;;;;;;;3.11;1.96;;;;;;;20.74;58.34;99982.08;;;;-52
2019/10/18 12:59:34;;;;;;;1.94;1.72;;;;;;;20.75;58.33;99989.06;;;;-52
2019/10/18 13:02:34;;;;;;;2.95;1.74;;;;;;;20.74;58.29;99993.89;;;;-52
2019/10/18 13:05:34;;;;;;;3.51;2.00;;;;;;;20.75;58.26;100000.64;;;;-52
2019/10/18 13:08:34;;;;;;;5.39;1.85;;;;;;;20.73;58.44;100006.11;;;;-52
2019/10/18 13:11:34;;;;;;;2.51;1.80;;;;;;;20.74;58.31;100003.46;;;;-51
2019/10/18 13:14:33;;;;;;;4.31;1.71;;;;;;;20.72;58.36;100008.53;;;;-54
2019/10/18 13:17:33;;;;;;;5.12;2.09;;;;;;;20.72;58.31;100009.70;;;;-53
2019/10/18 13:20:33;;;;;;;3.64;1.87;;;;;;;20.72;58.27;100006.75;;;;-53
2019/10/18 13:23:34;;;;;;;3.17;1.91;;;;;;;20.72;58.28;100006.31;;;;-54
2019/10/18 13:26:34;;;;;;;3.37;1.61;;;;;;;20.72;58.23;100007.76;;;;-53
2019/10/18 13:29:34;;;;;;;3.29;1.75;;;;;;;20.71;58.17;100006.89;;;;-53
2019/10/18 13:32:33;;;;;;;3.64;1.71;;;;;;;20.69;58.21;100006.48;;;;-54
2019/10/18 13:35:34;;;;;;;2.27;1.75;;;;;;;20.69;58.19;99997.26;;;;-53
2019/10/18 13:38:34;;;;;;;2.06;1.70;;;;;;;20.68;58.17;100004.54;;;;-53
2019/10/18 13:41:34;;;;;;;2.46;1.80;;;;;;;20.68;58.16;100009.81;;;;-53
2019/10/18 13:44:34;;;;;;;2.17;1.61;;;;;;;20.67;58.15;100009.87;;;;-53
2019/10/18 13:47:34;;;;;;;2.71;1.68;;;;;;;20.67;58.14;100022.86;;;;-50
2019/10/18 13:50:34;;;;;;;3.05;1.79;;;;;;;20.65;58.15;100035.31;;;;-53
2019/10/18 13:53:34;;;;;;;2.59;1.95;;;;;;;20.65;58.13;100039.17;;;;-60
2019/10/18 13:56:33;;;;;;;2.01;1.65;;;;;;;20.65;58.09;100051.09;;;;-61
2019/10/18 13:59:34;;;;;;;3.47;1.80;;;;;;;20.64;58.10;100046.52;;;;-50
2019/10/18 14:02:34;;;;;;;2.37;1.60;;;;;;;20.63;58.09;100022.84;;;;-61
2019/10/18 14:05:34;;;;;;;1.92;1.57;;;;;;;20.64;58.06;100029.14;;;;-62
2019/10/18 14:08:34;;;;;;;2.03;1.75;;;;;;;20.63;58.14;100037.33;;;;-50
2019/10/18 14:11:34;;;;;;;2.45;1.74;;;;;;;20.62;58.11;100029.34;;;;-53
2019/10/18 14:14:34;;;;;;;2.79;1.60;;;;;;;20.63;58.09;100038.34;;;;-53
2019/10/18 14:17:34;;;;;;;2.15;1.59;;;;;;;20.62;58.10;100045.28;;;;-53
2019/10/18 14:20:34;;;;;;;1.99;1.59;;;;;;;20.61;58.08;100052.30;;;;-61
2019/10/18 14:23:34;;;;;;;1.87;1.60;;;;;;;20.61;58.08;100055.72;;;;-61
2019/10/18 14:26:34;;;;;;;2.33;1.73;;;;;;;20.60;58.13;100060.48;;;;-53
2019/10/18 14:29:34;;;;;;;1.54;1.44;;;;;;;20.60;58.06;100057.13;;;;-61
2019/10/18 14:32:33;;;;;;;2.07;1.69;;;;;;;20.60;58.09;100075.48;;;;-53
2019/10/18 14:35:33;;;;;;;5.65;1.75;;;;;;;20.59;58.32;100083.37;;;;-51
2019/10/18 14:38:34;;;;;;;3.67;1.77;;;;;;;20.61;58.25;100091.89;;;;-47
2019/10/18 14:41:34;;;;;;;3.03;1.68;;;;;;;20.63;58.29;100090.63;;;;-61
2019/10/18 14:44:34;;;;;;;2.49;1.71;;;;;;;20.65;58.40;100092.09;;;;-53
2019/10/18 14:47:34;;;;;;;4.60;1.79;;;;;;;20.65;58.39;100090.86;;;;-56
2019/10/18 14:50:33;;;;;;;2.04;1.66;;;;;;;20.67;58.46;100096.53;;;;-60
2019/10/18 14:53:34;;;;;;;2.54;1.67;;;;;;;20.67;58.54;100099.72;;;;-49
2019/10/18 14:56:34;;;;;;;2.26;1.74;;;;;;;20.68;58.64;100106.13;;;;-57
2019/10/18 14:59:34;;;;;;;1.81;1.63;;;;;;;20.68;58.70;100106.97;;;;-50
2019/10/18 15:02:34;;;;;;;2.57;1.76;;;;;;;20.70;58.62;100108.98;;;;-51
2019/10/18 15:05:34;;;;;;;2.12;1.53;;;;;;;20.69;58.72;100110.28;;;;-55
2019/10/18 15:08:34;;;;;;;2.83;1.73;;;;;;;20.69;58.87;100106.49;;;;-51
2019/10/18 15:11:33;;;;;;;4.88;1.71;;;;;;;20.71;58.76;100105.55;;;;-63
2019/10/18 15:14:34;;;;;;;6.42;1.80;;;;;;;20.72;58.81;100106.33;;;;-50
2019/10/18 15:17:34;;;;;;;6.54;1.89;;;;;;;20.73;58.80;100102.50;;;;-49
2019/10/18 15:20:34;;;;;;;3.95;1.79;;;;;;;20.74;58.73;100106.83;;;;-52
2019/10/18 15:23:34;;;;;;;5.63;1.68;;;;;;;20.75;58.78;100110.22;;;;-51
2019/10/18 15:26:34;;;;;;;4.53;1.67;;;;;;;20.76;58.78;100103.71;;;;-50
2019/10/18 15:29:33;;;;;;;2.95;1.60;;;;;;;20.76;58.73;100102.47;;;;-52
2019/10/18 15:32:34;;;;;;;2.87;1.80;;;;;;;20.77;58.70;100093.17;;;;-52
2019/10/18 15:35:34;;;;;;;2.91;1.54;;;;;;;20.76;58.74;100092.23;;;;-53
2019/10/18 15:38:34;;;;;;;3.00;1.51;;;;;;;20.77;58.67;100099.72;;;;-51
2019/10/18 15:41:34;;;;;;;2.35;1.60;;;;;;;20.77;58.67;100096.45;;;;-52
2019/10/18 15:44:34;;;;;;;2.69;1.49;;;;;;;20.77;58.63;100100.89;;;;-52
2019/10/18 15:47:33;;;;;;;3.43;1.53;;;;;;;20.77;58.80;100111.06;;;;-49
2019/10/18 15:50:34;;;;;;;1.88;1.55;;;;;;;20.78;58.66;100115.63;;;;-51
2019/10/18 15:53:34;;;;;;;3.49;1.58;;;;;;;20.79;58.64;100120.59;;;;-50
2019/10/18 15:56:34;;;;;;;5.14;1.96;;;;;;;20.78;58.69;100118.71;;;;-55
2019/10/18 15:59:34;;;;;;;4.93;1.64;;;;;;;20.79;58.73;100115.39;;;;-51
2019/10/18 16:02:34;;;;;;;2.19;1.52;;;;;;;20.77;58.59;100118.45;;;;-53
2019/10/18 16:05:33;;;;;;;7.20;1.67;;;;;;;20.76;58.67;100120.99;;;;-53
2019/10/18 16:08:33;;;;;;;3.59;1.72;;;;;;;20.78;58.65;100122.73;;;;-52
2019/10/18 16:11:34;;;;;;;2.41;1.55;;;;;;;20.78;58.68;100110.66;;;;-57
2019/10/18 16:14:34;;;;;;;5.83;1.56;;;;;;;20.78;58.67;100107.64;;;;-56
2019/10/18 16:17:34;;;;;;;6.75;1.87;;;;;;;20.79;58.75;100113.71;;;;-58
2019/10/18 16:20:34;;;;;;;8.15;1.68;;;;;;;20.80;58.66;100112.38;;;;-61
2019/10/18 16:23:33;;;;;;;3.93;1.67;;;;;;;20.80;58.67;100111.36;;;;-62
2019/10/18 16:26:33;;;;;;;5.99;1.60;;;;;;;20.82;58.53;100111.46;;;;-52
2019/10/18 16:29:33;;;;;;;3.97;1.61;;;;;;;20.82;58.61;100120.86;;;;-57
2019/10/18 16:32:34;;;;;;;4.80;1.71;;;;;;;20.82;58.55;100127.41;;;;-61
2019/10/18 16:35:34;;;;;;;4.11;1.51;;;;;;;20.82;58.59;100120.06;;;;-56
2019/10/18 16:38:34;;;;;;;4.07;1.65;;;;;;;20.83;58.57;100121.73;;;;-50
2019/10/18 16:41:34;;;;;;;4.26;1.61;;;;;;;20.82;58.53;100123.92;;;;-50
2019/10/18 16:44:34;;;;;;;5.84;1.79;;;;;;;20.81;58.67;100128.08;;;;-52
2019/10/18 16:47:34;;;;;;;5.31;1.49;;;;;;;20.80;58.53;100125.63;;;;-51
2019/10/18 16:50:34;;;;;;;2.13;1.54;;;;;;;20.80;58.66;100127.30;;;;-51
2019/10/18 16:53:34;;;;;;;4.47;1.53;;;;;;;20.79;58.53;100120.09;;;;-51
2019/10/18 16:56:34;;;;;;;3.50;1.71;;;;;;;20.77;58.67;100107.37;;;;-50